sensor_id;sensor_type;location;lat;lon;timestamp;P1;durP1;ratioP1;P2;durP2;ratioP2
16101;SDS011;56411;52.964;10.540;2023-07-29T00:00:46;22.15;;;14.32;;
16101;SDS011;56411;52.964;10.540;2023-07-29T00:03:13;22.58;;;14.70;;
16101;SDS011;56411;52.964;10.540;2023-07-29T00:05:41;22.55;;;14.73;;
16101;SDS011;56411;52.964;10.540;2023-07-29T00:08:09;24.00;;;15.23;;
16101;SDS011;56411;52.964;10.540;2023-07-29T00:10:36;23.88;;;15.10;;
16101;SDS011;56411;52.964;10.540;2023-07-29T00:13:04;26.50;;;16.38;;
16101;SDS011;56411;52.964;10.540;2023-07-29T00:15:31;23.55;;;15.43;;
16101;SDS011;56411;52.964;10.540;2023-07-29T00:17:58;26.00;;;16.48;;
16101;SDS011;56411;52.964;10.540;2023-07-29T00:20:25;26.90;;;16.10;;
16101;SDS011;56411;52.964;10.540;2023-07-29T00:22:54;31.02;;;17.70;;
16101;SDS011;56411;52.964;10.540;2023-07-29T00:25:23;32.97;;;19.67;;
16101;SDS011;56411;52.964;10.540;2023-07-29T00:27:50;35.70;;;21.08;;
16101;SDS011;56411;52.964;10.540;2023-07-29T00:30:17;34.13;;;20.00;;
16101;SDS011;56411;52.964;10.540;2023-07-29T00:32:44;27.02;;;16.73;;
16101;SDS011;56411;52.964;10.540;2023-07-29T00:35:11;31.65;;;18.98;;
16101;SDS011;56411;52.964;10.540;2023-07-29T00:37:39;30.23;;;18.02;;
16101;SDS011;56411;52.964;10.540;2023-07-29T00:40:13;35.60;;;20.75;;
16101;SDS011;56411;52.964;10.540;2023-07-29T00:42:42;39.28;;;21.00;;
16101;SDS011;56411;52.964;10.540;2023-07-29T00:45:09;37.05;;;21.98;;
16101;SDS011;56411;52.964;10.540;2023-07-29T00:47:36;35.30;;;20.08;;
16101;SDS011;56411;52.964;10.540;2023-07-29T00:50:04;33.92;;;18.88;;
16101;SDS011;56411;52.964;10.540;2023-07-29T00:52:32;39.75;;;21.38;;
16101;SDS011;56411;52.964;10.540;2023-07-29T00:54:59;39.17;;;21.70;;
16101;SDS011;56411;52.964;10.540;2023-07-29T00:57:28;38.00;;;20.63;;
16101;SDS011;56411;52.964;10.540;2023-07-29T00:59:56;45.05;;;22.83;;
16101;SDS011;56411;52.964;10.540;2023-07-29T01:02:23;40.40;;;22.85;;
16101;SDS011;56411;52.964;10.540;2023-07-29T01:04:51;40.40;;;22.45;;
16101;SDS011;56411;52.964;10.540;2023-07-29T01:07:21;41.10;;;23.27;;
16101;SDS011;56411;52.964;10.540;2023-07-29T01:09:55;47.05;;;23.80;;
16101;SDS011;56411;52.964;10.540;2023-07-29T01:12:29;43.20;;;21.50;;
16101;SDS011;56411;52.964;10.540;2023-07-29T01:15:06;41.35;;;22.65;;
16101;SDS011;56411;52.964;10.540;2023-07-29T01:17:39;40.97;;;23.08;;
16101;SDS011;56411;52.964;10.540;2023-07-29T01:20:09;37.33;;;21.80;;
16101;SDS011;56411;52.964;10.540;2023-07-29T01:22:40;42.70;;;22.98;;
16101;SDS011;56411;52.964;10.540;2023-07-29T01:25:09;39.65;;;22.55;;
16101;SDS011;56411;52.964;10.540;2023-07-29T01:27:36;42.63;;;22.85;;
16101;SDS011;56411;52.964;10.540;2023-07-29T01:30:03;40.03;;;23.95;;
16101;SDS011;56411;52.964;10.540;2023-07-29T01:32:34;41.90;;;24.45;;
16101;SDS011;56411;52.964;10.540;2023-07-29T01:35:07;39.03;;;23.38;;
16101;SDS011;56411;52.964;10.540;2023-07-29T01:37:41;36.28;;;21.50;;
16101;SDS011;56411;52.964;10.540;2023-07-29T01:40:15;37.28;;;21.23;;
16101;SDS011;56411;52.964;10.540;2023-07-29T01:42:44;46.15;;;24.83;;
16101;SDS011;56411;52.964;10.540;2023-07-29T01:45:11;44.10;;;22.70;;
16101;SDS011;56411;52.964;10.540;2023-07-29T01:47:38;42.92;;;24.00;;
16101;SDS011;56411;52.964;10.540;2023-07-29T01:50:07;44.15;;;26.40;;
16101;SDS011;56411;52.964;10.540;2023-07-29T01:52:34;46.00;;;25.60;;
16101;SDS011;56411;52.964;10.540;2023-07-29T01:55:02;47.05;;;26.45;;
16101;SDS011;56411;52.964;10.540;2023-07-29T01:57:31;51.20;;;27.30;;
16101;SDS011;56411;52.964;10.540;2023-07-29T01:59:58;49.45;;;27.98;;
16101;SDS011;56411;52.964;10.540;2023-07-29T02:02:25;49.70;;;27.80;;
16101;SDS011;56411;52.964;10.540;2023-07-29T02:04:52;54.75;;;29.42;;
16101;SDS011;56411;52.964;10.540;2023-07-29T02:07:21;53.90;;;28.85;;
16101;SDS011;56411;52.964;10.540;2023-07-29T02:09:48;57.67;;;30.48;;
16101;SDS011;56411;52.964;10.540;2023-07-29T02:12:15;58.25;;;31.55;;
16101;SDS011;56411;52.964;10.540;2023-07-29T02:14:44;55.05;;;32.00;;
16101;SDS011;56411;52.964;10.540;2023-07-29T02:17:11;57.40;;;30.50;;
16101;SDS011;56411;52.964;10.540;2023-07-29T02:19:38;52.30;;;30.55;;
16101;SDS011;56411;52.964;10.540;2023-07-29T02:22:05;57.17;;;30.85;;
16101;SDS011;56411;52.964;10.540;2023-07-29T02:24:33;57.33;;;30.13;;
16101;SDS011;56411;52.964;10.540;2023-07-29T02:27:00;57.55;;;31.17;;
16101;SDS011;56411;52.964;10.540;2023-07-29T02:29:28;57.58;;;32.10;;
16101;SDS011;56411;52.964;10.540;2023-07-29T02:31:59;62.65;;;32.72;;
16101;SDS011;56411;52.964;10.540;2023-07-29T02:34:27;70.55;;;33.63;;
16101;SDS011;56411;52.964;10.540;2023-07-29T02:36:54;66.55;;;32.38;;
16101;SDS011;56411;52.964;10.540;2023-07-29T02:39:21;56.58;;;31.02;;
16101;SDS011;56411;52.964;10.540;2023-07-29T02:41:49;68.30;;;31.90;;
16101;SDS011;56411;52.964;10.540;2023-07-29T02:44:16;76.22;;;34.20;;
16101;SDS011;56411;52.964;10.540;2023-07-29T02:46:44;67.38;;;33.33;;
16101;SDS011;56411;52.964;10.540;2023-07-29T02:49:13;71.45;;;32.83;;
16101;SDS011;56411;52.964;10.540;2023-07-29T02:51:40;55.47;;;29.30;;
16101;SDS011;56411;52.964;10.540;2023-07-29T02:54:07;52.85;;;29.67;;
16101;SDS011;56411;52.964;10.540;2023-07-29T02:56:34;56.95;;;29.15;;
16101;SDS011;56411;52.964;10.540;2023-07-29T02:59:01;62.20;;;32.40;;
16101;SDS011;56411;52.964;10.540;2023-07-29T03:01:28;57.38;;;30.77;;
16101;SDS011;56411;52.964;10.540;2023-07-29T03:03:55;57.83;;;30.50;;
16101;SDS011;56411;52.964;10.540;2023-07-29T03:06:24;61.10;;;31.13;;
16101;SDS011;56411;52.964;10.540;2023-07-29T03:08:51;55.17;;;30.77;;
16101;SDS011;56411;52.964;10.540;2023-07-29T03:11:18;55.58;;;30.02;;
16101;SDS011;56411;52.964;10.540;2023-07-29T03:13:45;57.50;;;30.15;;
16101;SDS011;56411;52.964;10.540;2023-07-29T03:16:13;59.30;;;29.85;;
16101;SDS011;56411;52.964;10.540;2023-07-29T03:18:41;54.30;;;29.05;;
16101;SDS011;56411;52.964;10.540;2023-07-29T03:21:09;52.08;;;29.60;;
16101;SDS011;56411;52.964;10.540;2023-07-29T03:23:37;53.55;;;28.98;;
16101;SDS011;56411;52.964;10.540;2023-07-29T03:26:05;53.47;;;28.00;;
16101;SDS011;56411;52.964;10.540;2023-07-29T03:28:35;56.65;;;28.52;;
16101;SDS011;56411;52.964;10.540;2023-07-29T03:31:03;57.05;;;28.38;;
16101;SDS011;56411;52.964;10.540;2023-07-29T03:33:30;52.25;;;27.70;;
16101;SDS011;56411;52.964;10.540;2023-07-29T03:35:57;54.83;;;28.45;;
16101;SDS011;56411;52.964;10.540;2023-07-29T03:38:25;51.13;;;28.45;;
16101;SDS011;56411;52.964;10.540;2023-07-29T03:40:54;51.17;;;28.25;;
16101;SDS011;56411;52.964;10.540;2023-07-29T03:43:21;48.83;;;27.08;;
16101;SDS011;56411;52.964;10.540;2023-07-29T03:45:48;56.63;;;28.98;;
16101;SDS011;56411;52.964;10.540;2023-07-29T03:48:15;50.03;;;26.70;;
16101;SDS011;56411;52.964;10.540;2023-07-29T03:50:42;49.08;;;26.90;;
16101;SDS011;56411;52.964;10.540;2023-07-29T03:53:09;50.15;;;26.17;;
16101;SDS011;56411;52.964;10.540;2023-07-29T03:55:36;48.25;;;25.20;;
16101;SDS011;56411;52.964;10.540;2023-07-29T03:58:04;45.28;;;26.63;;
16101;SDS011;56411;52.964;10.540;2023-07-29T04:00:31;48.78;;;26.10;;
16101;SDS011;56411;52.964;10.540;2023-07-29T04:02:59;47.85;;;25.38;;
16101;SDS011;56411;52.964;10.540;2023-07-29T04:05:26;47.03;;;26.75;;
16101;SDS011;56411;52.964;10.540;2023-07-29T04:07:53;48.28;;;26.58;;
16101;SDS011;56411;52.964;10.540;2023-07-29T04:10:20;52.30;;;27.52;;
16101;SDS011;56411;52.964;10.540;2023-07-29T04:12:48;50.00;;;27.77;;
16101;SDS011;56411;52.964;10.540;2023-07-29T04:15:16;51.95;;;28.25;;
16101;SDS011;56411;52.964;10.540;2023-07-29T04:17:43;48.90;;;27.70;;
16101;SDS011;56411;52.964;10.540;2023-07-29T04:20:10;53.60;;;29.13;;
16101;SDS011;56411;52.964;10.540;2023-07-29T04:22:37;48.80;;;27.73;;
16101;SDS011;56411;52.964;10.540;2023-07-29T04:25:05;49.60;;;27.88;;
16101;SDS011;56411;52.964;10.540;2023-07-29T04:27:33;49.15;;;25.95;;
16101;SDS011;56411;52.964;10.540;2023-07-29T04:29:59;47.80;;;26.70;;
16101;SDS011;56411;52.964;10.540;2023-07-29T04:32:28;48.15;;;26.20;;
16101;SDS011;56411;52.964;10.540;2023-07-29T04:34:55;47.05;;;26.00;;
16101;SDS011;56411;52.964;10.540;2023-07-29T04:37:22;49.58;;;26.88;;
16101;SDS011;56411;52.964;10.540;2023-07-29T04:39:49;43.53;;;25.70;;
16101;SDS011;56411;52.964;10.540;2023-07-29T04:42:17;43.63;;;25.60;;
16101;SDS011;56411;52.964;10.540;2023-07-29T04:44:44;43.60;;;25.10;;
16101;SDS011;56411;52.964;10.540;2023-07-29T04:47:11;43.72;;;24.48;;
16101;SDS011;56411;52.964;10.540;2023-07-29T04:49:39;40.72;;;23.75;;
16101;SDS011;56411;52.964;10.540;2023-07-29T04:52:06;38.67;;;23.17;;
16101;SDS011;56411;52.964;10.540;2023-07-29T04:54:34;38.88;;;23.25;;
16101;SDS011;56411;52.964;10.540;2023-07-29T04:57:01;32.42;;;20.58;;
16101;SDS011;56411;52.964;10.540;2023-07-29T04:59:27;35.55;;;22.80;;
16101;SDS011;56411;52.964;10.540;2023-07-29T05:01:54;31.60;;;20.20;;
16101;SDS011;56411;52.964;10.540;2023-07-29T05:04:21;29.80;;;18.95;;
16101;SDS011;56411;52.964;10.540;2023-07-29T05:06:49;31.13;;;18.75;;
16101;SDS011;56411;52.964;10.540;2023-07-29T05:09:17;31.02;;;18.85;;
16101;SDS011;56411;52.964;10.540;2023-07-29T05:11:46;29.92;;;19.10;;
16101;SDS011;56411;52.964;10.540;2023-07-29T05:14:14;27.10;;;18.23;;
16101;SDS011;56411;52.964;10.540;2023-07-29T05:16:42;22.15;;;15.82;;
16101;SDS011;56411;52.964;10.540;2023-07-29T05:19:10;26.95;;;17.58;;
16101;SDS011;56411;52.964;10.540;2023-07-29T05:21:38;26.20;;;17.05;;
16101;SDS011;56411;52.964;10.540;2023-07-29T05:24:07;26.52;;;17.48;;
16101;SDS011;56411;52.964;10.540;2023-07-29T05:26:34;28.98;;;17.63;;
16101;SDS011;56411;52.964;10.540;2023-07-29T05:29:01;25.15;;;16.13;;
16101;SDS011;56411;52.964;10.540;2023-07-29T05:31:29;23.63;;;14.77;;
16101;SDS011;56411;52.964;10.540;2023-07-29T05:33:56;24.48;;;14.82;;
16101;SDS011;56411;52.964;10.540;2023-07-29T05:36:22;23.48;;;14.70;;
16101;SDS011;56411;52.964;10.540;2023-07-29T05:38:50;21.25;;;13.95;;
16101;SDS011;56411;52.964;10.540;2023-07-29T05:41:20;22.40;;;14.88;;
16101;SDS011;56411;52.964;10.540;2023-07-29T05:43:47;19.52;;;13.70;;
16101;SDS011;56411;52.964;10.540;2023-07-29T05:46:14;20.10;;;12.10;;
16101;SDS011;56411;52.964;10.540;2023-07-29T05:48:41;17.52;;;11.88;;
16101;SDS011;56411;52.964;10.540;2023-07-29T05:51:08;17.50;;;11.70;;
16101;SDS011;56411;52.964;10.540;2023-07-29T05:53:35;16.30;;;11.00;;
16101;SDS011;56411;52.964;10.540;2023-07-29T05:56:02;16.73;;;10.98;;
16101;SDS011;56411;52.964;10.540;2023-07-29T05:58:30;14.65;;;9.80;;
16101;SDS011;56411;52.964;10.540;2023-07-29T06:00:57;14.43;;;9.75;;
16101;SDS011;56411;52.964;10.540;2023-07-29T06:03:25;16.23;;;10.00;;
16101;SDS011;56411;52.964;10.540;2023-07-29T06:05:52;15.80;;;9.77;;
16101;SDS011;56411;52.964;10.540;2023-07-29T06:08:20;14.20;;;9.38;;
16101;SDS011;56411;52.964;10.540;2023-07-29T06:10:47;15.18;;;9.88;;
16101;SDS011;56411;52.964;10.540;2023-07-29T06:13:14;13.73;;;9.50;;
16101;SDS011;56411;52.964;10.540;2023-07-29T06:15:42;14.73;;;9.52;;
16101;SDS011;56411;52.964;10.540;2023-07-29T06:18:10;14.65;;;9.43;;
16101;SDS011;56411;52.964;10.540;2023-07-29T06:20:37;13.25;;;8.55;;
16101;SDS011;56411;52.964;10.540;2023-07-29T06:23:04;16.00;;;8.70;;
16101;SDS011;56411;52.964;10.540;2023-07-29T06:25:31;14.60;;;8.40;;
16101;SDS011;56411;52.964;10.540;2023-07-29T06:27:58;12.75;;;8.05;;
16101;SDS011;56411;52.964;10.540;2023-07-29T06:30:26;12.55;;;6.85;;
16101;SDS011;56411;52.964;10.540;2023-07-29T06:32:54;11.65;;;7.68;;
16101;SDS011;56411;52.964;10.540;2023-07-29T06:35:21;12.07;;;7.20;;
16101;SDS011;56411;52.964;10.540;2023-07-29T06:37:48;11.27;;;6.50;;
16101;SDS011;56411;52.964;10.540;2023-07-29T06:40:15;13.65;;;7.40;;
16101;SDS011;56411;52.964;10.540;2023-07-29T06:42:42;12.30;;;7.30;;
16101;SDS011;56411;52.964;10.540;2023-07-29T06:45:12;11.77;;;6.88;;
16101;SDS011;56411;52.964;10.540;2023-07-29T06:47:40;12.05;;;7.72;;
16101;SDS011;56411;52.964;10.540;2023-07-29T06:50:09;12.02;;;7.22;;
16101;SDS011;56411;52.964;10.540;2023-07-29T06:52:36;11.77;;;6.97;;
16101;SDS011;56411;52.964;10.540;2023-07-29T06:55:05;10.90;;;6.45;;
16101;SDS011;56411;52.964;10.540;2023-07-29T06:57:33;11.02;;;6.70;;
16101;SDS011;56411;52.964;10.540;2023-07-29T07:00:00;12.95;;;6.50;;
16101;SDS011;56411;52.964;10.540;2023-07-29T07:02:27;9.75;;;5.90;;
16101;SDS011;56411;52.964;10.540;2023-07-29T07:04:54;14.30;;;9.93;;
16101;SDS011;56411;52.964;10.540;2023-07-29T07:07:23;11.85;;;7.28;;
16101;SDS011;56411;52.964;10.540;2023-07-29T07:09:50;10.20;;;6.50;;
16101;SDS011;56411;52.964;10.540;2023-07-29T07:12:17;10.20;;;6.05;;
16101;SDS011;56411;52.964;10.540;2023-07-29T07:14:44;9.05;;;5.88;;
16101;SDS011;56411;52.964;10.540;2023-07-29T07:17:12;9.50;;;5.53;;
16101;SDS011;56411;52.964;10.540;2023-07-29T07:19:39;9.32;;;5.05;;
16101;SDS011;56411;52.964;10.540;2023-07-29T07:22:06;9.50;;;4.70;;
16101;SDS011;56411;52.964;10.540;2023-07-29T07:24:35;8.82;;;4.80;;
16101;SDS011;56411;52.964;10.540;2023-07-29T07:27:02;9.18;;;4.60;;
16101;SDS011;56411;52.964;10.540;2023-07-29T07:29:29;7.90;;;4.38;;
16101;SDS011;56411;52.964;10.540;2023-07-29T07:31:56;7.75;;;4.70;;
16101;SDS011;56411;52.964;10.540;2023-07-29T07:34:25;6.85;;;4.45;;
16101;SDS011;56411;52.964;10.540;2023-07-29T07:36:53;7.40;;;4.45;;
16101;SDS011;56411;52.964;10.540;2023-07-29T07:39:20;9.32;;;5.00;;
16101;SDS011;56411;52.964;10.540;2023-07-29T07:41:48;11.00;;;6.05;;
16101;SDS011;56411;52.964;10.540;2023-07-29T07:44:15;8.57;;;4.63;;
16101;SDS011;56411;52.964;10.540;2023-07-29T07:46:44;7.10;;;4.53;;
16101;SDS011;56411;52.964;10.540;2023-07-29T07:49:11;9.20;;;4.90;;
16101;SDS011;56411;52.964;10.540;2023-07-29T07:51:39;9.05;;;4.68;;
16101;SDS011;56411;52.964;10.540;2023-07-29T07:54:06;10.05;;;4.70;;
16101;SDS011;56411;52.964;10.540;2023-07-29T07:56:34;9.15;;;4.68;;
16101;SDS011;56411;52.964;10.540;2023-07-29T07:59:02;8.75;;;4.57;;
16101;SDS011;56411;52.964;10.540;2023-07-29T08:01:34;7.60;;;4.60;;
16101;SDS011;56411;52.964;10.540;2023-07-29T08:04:02;9.40;;;4.68;;
16101;SDS011;56411;52.964;10.540;2023-07-29T08:06:29;8.40;;;4.53;;
16101;SDS011;56411;52.964;10.540;2023-07-29T08:08:56;8.02;;;4.50;;
16101;SDS011;56411;52.964;10.540;2023-07-29T08:11:24;8.63;;;4.22;;
16101;SDS011;56411;52.964;10.540;2023-07-29T08:13:51;7.78;;;4.50;;
16101;SDS011;56411;52.964;10.540;2023-07-29T08:16:20;10.95;;;5.07;;
16101;SDS011;56411;52.964;10.540;2023-07-29T08:18:47;11.15;;;5.50;;
16101;SDS011;56411;52.964;10.540;2023-07-29T08:21:14;7.45;;;4.25;;
16101;SDS011;56411;52.964;10.540;2023-07-29T08:23:41;6.25;;;3.53;;
16101;SDS011;56411;52.964;10.540;2023-07-29T08:26:09;7.55;;;3.85;;
16101;SDS011;56411;52.964;10.540;2023-07-29T08:28:37;8.25;;;3.85;;
16101;SDS011;56411;52.964;10.540;2023-07-29T08:31:05;5.72;;;3.50;;
16101;SDS011;56411;52.964;10.540;2023-07-29T08:33:34;5.65;;;3.50;;
16101;SDS011;56411;52.964;10.540;2023-07-29T08:36:01;5.82;;;3.47;;
16101;SDS011;56411;52.964;10.540;2023-07-29T08:38:29;5.80;;;3.28;;
16101;SDS011;56411;52.964;10.540;2023-07-29T08:40:58;4.30;;;3.00;;
16101;SDS011;56411;52.964;10.540;2023-07-29T08:43:39;10.90;;;6.75;;
16101;SDS011;56411;52.964;10.540;2023-07-29T08:46:10;11.75;;;6.28;;
16101;SDS011;56411;52.964;10.540;2023-07-29T08:48:41;7.25;;;3.90;;
16101;SDS011;56411;52.964;10.540;2023-07-29T08:51:09;4.60;;;3.22;;
16101;SDS011;56411;52.964;10.540;2023-07-29T08:53:37;5.97;;;3.47;;
16101;SDS011;56411;52.964;10.540;2023-07-29T08:56:06;5.95;;;3.55;;
16101;SDS011;56411;52.964;10.540;2023-07-29T08:58:36;7.07;;;3.67;;
16101;SDS011;56411;52.964;10.540;2023-07-29T09:01:05;5.82;;;3.65;;
16101;SDS011;56411;52.964;10.540;2023-07-29T09:03:32;9.02;;;3.80;;
16101;SDS011;56411;52.964;10.540;2023-07-29T09:06:01;7.25;;;3.67;;
16101;SDS011;56411;52.964;10.540;2023-07-29T09:08:29;5.82;;;3.45;;
16101;SDS011;56411;52.964;10.540;2023-07-29T09:10:57;6.47;;;3.30;;
16101;SDS011;56411;52.964;10.540;2023-07-29T09:13:24;6.00;;;3.20;;
16101;SDS011;56411;52.964;10.540;2023-07-29T09:15:54;6.25;;;3.17;;
16101;SDS011;56411;52.964;10.540;2023-07-29T09:18:22;6.47;;;3.53;;
16101;SDS011;56411;52.964;10.540;2023-07-29T09:20:52;7.30;;;3.50;;
16101;SDS011;56411;52.964;10.540;2023-07-29T09:23:21;7.70;;;4.20;;
16101;SDS011;56411;52.964;10.540;2023-07-29T09:25:49;6.53;;;3.60;;
16101;SDS011;56411;52.964;10.540;2023-07-29T09:28:16;5.95;;;3.40;;
16101;SDS011;56411;52.964;10.540;2023-07-29T09:30:44;6.72;;;3.30;;
16101;SDS011;56411;52.964;10.540;2023-07-29T09:33:12;5.68;;;3.15;;
16101;SDS011;56411;52.964;10.540;2023-07-29T09:35:39;6.63;;;3.40;;
16101;SDS011;56411;52.964;10.540;2023-07-29T09:38:07;6.57;;;3.40;;
16101;SDS011;56411;52.964;10.540;2023-07-29T09:40:36;8.50;;;3.70;;
16101;SDS011;56411;52.964;10.540;2023-07-29T09:43:04;6.65;;;3.80;;
16101;SDS011;56411;52.964;10.540;2023-07-29T09:45:33;7.95;;;4.05;;
16101;SDS011;56411;52.964;10.540;2023-07-29T09:48:01;9.70;;;5.07;;
16101;SDS011;56411;52.964;10.540;2023-07-29T09:50:30;11.10;;;6.43;;
16101;SDS011;56411;52.964;10.540;2023-07-29T09:52:57;9.40;;;5.70;;
16101;SDS011;56411;52.964;10.540;2023-07-29T09:55:25;11.05;;;6.55;;
16101;SDS011;56411;52.964;10.540;2023-07-29T09:57:55;10.57;;;6.15;;
16101;SDS011;56411;52.964;10.540;2023-07-29T10:00:26;10.88;;;6.53;;
16101;SDS011;56411;52.964;10.540;2023-07-29T10:02:54;10.85;;;6.60;;
16101;SDS011;56411;52.964;10.540;2023-07-29T10:05:22;10.85;;;6.65;;
16101;SDS011;56411;52.964;10.540;2023-07-29T10:07:49;11.95;;;7.30;;
16101;SDS011;56411;52.964;10.540;2023-07-29T10:10:17;11.38;;;7.10;;
16101;SDS011;56411;52.964;10.540;2023-07-29T10:12:44;15.20;;;8.13;;
16101;SDS011;56411;52.964;10.540;2023-07-29T10:15:15;16.70;;;9.75;;
16101;SDS011;56411;52.964;10.540;2023-07-29T10:17:42;20.35;;;12.77;;
16101;SDS011;56411;52.964;10.540;2023-07-29T10:20:09;20.92;;;14.82;;
16101;SDS011;56411;52.964;10.540;2023-07-29T10:22:38;20.45;;;14.73;;
16101;SDS011;56411;52.964;10.540;2023-07-29T10:25:07;21.08;;;14.55;;
16101;SDS011;56411;52.964;10.540;2023-07-29T10:27:41;22.10;;;15.32;;
16101;SDS011;56411;52.964;10.540;2023-07-29T10:30:10;23.52;;;16.85;;
16101;SDS011;56411;52.964;10.540;2023-07-29T10:32:40;23.38;;;17.05;;
16101;SDS011;56411;52.964;10.540;2023-07-29T10:35:09;19.65;;;14.82;;
16101;SDS011;56411;52.964;10.540;2023-07-29T10:37:36;19.27;;;14.88;;
16101;SDS011;56411;52.964;10.540;2023-07-29T10:40:05;18.13;;;13.90;;
16101;SDS011;56411;52.964;10.540;2023-07-29T10:42:34;20.38;;;14.27;;
16101;SDS011;56411;52.964;10.540;2023-07-29T10:45:16;17.02;;;12.57;;
16101;SDS011;56411;52.964;10.540;2023-07-29T10:47:47;18.20;;;13.68;;
16101;SDS011;56411;52.964;10.540;2023-07-29T10:50:17;17.58;;;11.70;;
16101;SDS011;56411;52.964;10.540;2023-07-29T10:52:48;13.48;;;9.82;;
16101;SDS011;56411;52.964;10.540;2023-07-29T10:55:26;13.93;;;10.35;;
16101;SDS011;56411;52.964;10.540;2023-07-29T10:58:08;14.35;;;10.00;;
16101;SDS011;56411;52.964;10.540;2023-07-29T11:00:38;12.55;;;8.75;;
16101;SDS011;56411;52.964;10.540;2023-07-29T11:03:07;12.77;;;8.30;;
16101;SDS011;56411;52.964;10.540;2023-07-29T11:05:44;12.20;;;8.13;;
16101;SDS011;56411;52.964;10.540;2023-07-29T11:08:20;12.57;;;7.78;;
16101;SDS011;56411;52.964;10.540;2023-07-29T11:11:02;11.95;;;7.35;;
16101;SDS011;56411;52.964;10.540;2023-07-29T11:13:32;9.18;;;5.68;;
16101;SDS011;56411;52.964;10.540;2023-07-29T11:16:00;10.40;;;6.18;;
16101;SDS011;56411;52.964;10.540;2023-07-29T11:18:30;9.90;;;5.80;;
16101;SDS011;56411;52.964;10.540;2023-07-29T11:20:58;10.45;;;5.50;;
16101;SDS011;56411;52.964;10.540;2023-07-29T11:23:27;9.80;;;4.93;;
16101;SDS011;56411;52.964;10.540;2023-07-29T11:25:55;9.93;;;5.55;;
16101;SDS011;56411;52.964;10.540;2023-07-29T11:28:23;9.15;;;5.35;;
16101;SDS011;56411;52.964;10.540;2023-07-29T11:30:51;11.25;;;6.47;;
16101;SDS011;56411;52.964;10.540;2023-07-29T11:33:19;10.18;;;5.75;;
16101;SDS011;56411;52.964;10.540;2023-07-29T11:35:49;9.73;;;5.78;;
16101;SDS011;56411;52.964;10.540;2023-07-29T11:38:16;11.25;;;5.75;;
16101;SDS011;56411;52.964;10.540;2023-07-29T11:40:53;10.00;;;5.55;;
16101;SDS011;56411;52.964;10.540;2023-07-29T11:43:21;10.73;;;5.60;;
16101;SDS011;56411;52.964;10.540;2023-07-29T11:45:49;10.63;;;6.00;;
16101;SDS011;56411;52.964;10.540;2023-07-29T11:48:17;10.63;;;6.18;;
16101;SDS011;56411;52.964;10.540;2023-07-29T11:50:44;11.88;;;6.97;;
16101;SDS011;56411;52.964;10.540;2023-07-29T11:53:14;11.35;;;6.55;;
16101;SDS011;56411;52.964;10.540;2023-07-29T11:55:41;12.13;;;6.80;;
16101;SDS011;56411;52.964;10.540;2023-07-29T11:58:09;10.52;;;6.60;;
16101;SDS011;56411;52.964;10.540;2023-07-29T12:00:37;10.95;;;6.50;;
16101;SDS011;56411;52.964;10.540;2023-07-29T12:03:05;9.93;;;5.82;;
16101;SDS011;56411;52.964;10.540;2023-07-29T12:05:33;11.05;;;5.70;;
16101;SDS011;56411;52.964;10.540;2023-07-29T12:08:01;9.90;;;5.55;;
16101;SDS011;56411;52.964;10.540;2023-07-29T12:10:30;11.13;;;5.43;;
16101;SDS011;56411;52.964;10.540;2023-07-29T12:12:57;10.48;;;5.60;;
16101;SDS011;56411;52.964;10.540;2023-07-29T12:15:24;10.10;;;5.75;;
16101;SDS011;56411;52.964;10.540;2023-07-29T12:17:53;10.25;;;6.00;;
16101;SDS011;56411;52.964;10.540;2023-07-29T12:20:22;8.88;;;5.70;;
16101;SDS011;56411;52.964;10.540;2023-07-29T12:22:53;10.23;;;6.50;;
16101;SDS011;56411;52.964;10.540;2023-07-29T12:25:21;9.30;;;6.07;;
16101;SDS011;56411;52.964;10.540;2023-07-29T12:27:51;10.88;;;7.07;;
16101;SDS011;56411;52.964;10.540;2023-07-29T12:30:20;10.38;;;6.65;;
16101;SDS011;56411;52.964;10.540;2023-07-29T12:32:48;10.98;;;6.72;;
16101;SDS011;56411;52.964;10.540;2023-07-29T12:35:15;10.20;;;6.78;;
16101;SDS011;56411;52.964;10.540;2023-07-29T12:37:42;10.18;;;6.57;;
16101;SDS011;56411;52.964;10.540;2023-07-29T12:40:20;10.65;;;6.68;;
16101;SDS011;56411;52.964;10.540;2023-07-29T12:42:50;10.05;;;6.47;;
16101;SDS011;56411;52.964;10.540;2023-07-29T12:45:18;10.88;;;6.80;;
16101;SDS011;56411;52.964;10.540;2023-07-29T12:47:48;10.90;;;6.63;;
16101;SDS011;56411;52.964;10.540;2023-07-29T12:50:15;10.30;;;6.35;;
16101;SDS011;56411;52.964;10.540;2023-07-29T12:52:43;9.68;;;6.10;;
16101;SDS011;56411;52.964;10.540;2023-07-29T12:55:10;9.98;;;5.68;;
16101;SDS011;56411;52.964;10.540;2023-07-29T12:57:39;10.00;;;5.70;;
16101;SDS011;56411;52.964;10.540;2023-07-29T13:00:11;9.05;;;4.95;;
16101;SDS011;56411;52.964;10.540;2023-07-29T13:02:38;10.13;;;6.07;;
16101;SDS011;56411;52.964;10.540;2023-07-29T13:05:09;11.23;;;6.20;;
16101;SDS011;56411;52.964;10.540;2023-07-29T13:07:37;10.50;;;6.13;;
16101;SDS011;56411;52.964;10.540;2023-07-29T13:10:05;10.43;;;6.25;;
16101;SDS011;56411;52.964;10.540;2023-07-29T13:12:33;9.05;;;5.53;;
16101;SDS011;56411;52.964;10.540;2023-07-29T13:15:00;8.45;;;5.43;;
16101;SDS011;56411;52.964;10.540;2023-07-29T13:17:29;8.73;;;5.50;;
16101;SDS011;56411;52.964;10.540;2023-07-29T13:19:56;9.00;;;5.88;;
16101;SDS011;56411;52.964;10.540;2023-07-29T13:22:23;11.57;;;6.43;;
16101;SDS011;56411;52.964;10.540;2023-07-29T13:24:50;11.00;;;7.00;;
16101;SDS011;56411;52.964;10.540;2023-07-29T13:27:17;11.82;;;7.18;;
16101;SDS011;56411;52.964;10.540;2023-07-29T13:29:44;10.05;;;6.43;;
16101;SDS011;56411;52.964;10.540;2023-07-29T13:32:12;10.82;;;7.00;;
16101;SDS011;56411;52.964;10.540;2023-07-29T13:34:40;8.98;;;5.93;;
16101;SDS011;56411;52.964;10.540;2023-07-29T13:37:08;8.65;;;5.10;;
16101;SDS011;56411;52.964;10.540;2023-07-29T13:39:35;7.68;;;4.90;;
16101;SDS011;56411;52.964;10.540;2023-07-29T13:42:02;7.15;;;4.60;;
16101;SDS011;56411;52.964;10.540;2023-07-29T13:44:30;6.47;;;4.40;;
16101;SDS011;56411;52.964;10.540;2023-07-29T13:46:57;10.05;;;4.35;;
16101;SDS011;56411;52.964;10.540;2023-07-29T13:49:24;6.93;;;4.03;;
16101;SDS011;56411;52.964;10.540;2023-07-29T13:51:54;6.53;;;3.47;;
16101;SDS011;56411;52.964;10.540;2023-07-29T13:54:24;6.60;;;3.55;;
16101;SDS011;56411;52.964;10.540;2023-07-29T13:56:53;5.80;;;3.20;;
16101;SDS011;56411;52.964;10.540;2023-07-29T13:59:21;7.18;;;3.40;;
16101;SDS011;56411;52.964;10.540;2023-07-29T14:01:48;4.97;;;2.97;;
16101;SDS011;56411;52.964;10.540;2023-07-29T14:04:16;6.13;;;3.20;;
16101;SDS011;56411;52.964;10.540;2023-07-29T14:06:43;7.72;;;3.40;;
16101;SDS011;56411;52.964;10.540;2023-07-29T14:09:13;5.30;;;3.13;;
16101;SDS011;56411;52.964;10.540;2023-07-29T14:11:43;6.43;;;3.10;;
16101;SDS011;56411;52.964;10.540;2023-07-29T14:14:10;5.00;;;3.08;;
16101;SDS011;56411;52.964;10.540;2023-07-29T14:16:38;5.97;;;3.30;;
16101;SDS011;56411;52.964;10.540;2023-07-29T14:19:05;3.78;;;2.50;;
16101;SDS011;56411;52.964;10.540;2023-07-29T14:21:32;2.92;;;2.15;;
16101;SDS011;56411;52.964;10.540;2023-07-29T14:24:00;4.25;;;2.25;;